Time;durP1;ratioP1;P1;durP2;ratioP2;P2;SDS_P1;SDS_P2;PMS_P1;PMS_P2;Temp;Humidity;BMP_temperature;BMP_pressure;BME280_temperature;BME280_humidity;BME280_pressure;Samples;Min_cycle;Max_cycle;Signal;HPM_P1;HPM_P2
2022/05/04 00:00:39;;;;;;;5.88;4.32;;;;;;;11.81;75.53;100752.78;6181248;23;19914;-68
2022/05/04 00:03:42;;;;;;;8.15;5.03;;;;;;;11.80;75.40;100750.22;6181029;23;20035;-68
2022/05/04 00:06:46;;;;;;;5.75;4.47;;;;;;;11.78;75.41;100747.72;6180939;23;20348;-68
2022/05/04 00:09:50;;;;;;;7.10;5.00;;;;;;;11.69;75.79;100745.56;6180889;23;20066;-68
2022/05/04 00:12:56;;;;;;;10.18;4.35;;;;;;;11.60;75.79;100743.44;6181206;23;20028;-68
2022/05/04 00:16:02;;;;;;;14.07;4.55;;;;;;;11.79;75.59;100744.16;6180514;23;20024;-68
2022/05/04 00:19:06;;;;;;;4.60;3.83;;;;;;;11.89;74.59;100743.69;6180173;23;20097;-68
2022/05/04 00:22:11;;;;;;;5.65;4.95;;;;;;;11.88;74.47;100742.00;6181243;23;20032;-68
2022/05/04 00:25:15;;;;;;;10.55;4.65;;;;;;;11.66;75.63;100744.91;6252555;22;20070;-68
2022/05/04 00:28:18;;;;;;;5.85;4.28;;;;;;;11.54;76.27;100747.22;6181099;23;20027;-68
2022/05/04 00:31:22;;;;;;;8.05;4.72;;;;;;;11.53;76.50;100752.56;6181114;23;20028;-68
2022/05/04 00:34:25;;;;;;;11.20;4.40;;;;;;;11.57;76.45;100743.59;6181092;23;20023;-68
2022/05/04 00:37:29;;;;;;;8.65;5.65;;;;;;;11.57;76.38;100741.81;6180596;22;20027;-68
2022/05/04 00:40:32;;;;;;;9.85;4.35;;;;;;;11.46;76.80;100745.97;6180813;23;20104;-68
2022/05/04 00:43:37;;;;;;;5.65;4.22;;;;;;;11.58;76.40;100755.75;6180953;23;20032;-68
2022/05/04 00:46:40;;;;;;;6.75;4.30;;;;;;;11.52;76.68;100756.06;6181059;23;20446;-68
2022/05/04 00:49:47;;;;;;;8.15;4.88;;;;;;;11.57;76.53;100749.69;6181016;23;20027;-68
2022/05/04 00:52:50;;;;;;;6.60;4.70;;;;;;;11.47;77.00;100750.25;6180769;23;20074;-68
2022/05/04 00:55:53;;;;;;;;;;;;;;;11.37;77.20;100750.72;6181344;23;20020;-68
2022/05/04 00:58:57;;;;;;;7.45;4.82;;;;;;;11.43;77.08;100743.50;6253241;22;19958;-68
2022/05/04 01:02:01;;;;;;;6.13;4.93;;;;;;;11.46;77.06;100753.81;6180958;23;20038;-68
2022/05/04 01:05:09;;;;;;;8.93;4.65;;;;;;;11.52;76.68;100753.47;6180898;23;20039;-68
2022/05/04 01:08:12;;;;;;;8.75;5.18;;;;;;;11.68;76.25;100751.75;6180263;23;20023;-68
2022/05/04 01:11:16;;;;;;;;;;;;;;;11.44;77.28;100742.56;6181326;23;20039;-68
2022/05/04 01:14:20;;;;;;;9.63;4.63;;;;;;;11.39;77.32;100740.16;6180945;23;19930;-68
2022/05/04 01:17:24;;;;;;;7.55;4.38;;;;;;;11.28;77.61;100743.34;6180840;23;20491;-68
2022/05/04 01:20:27;;;;;;;7.15;4.25;;;;;;;11.41;77.34;100739.16;6180894;23;20071;-68
2022/05/04 01:23:31;;;;;;;5.63;4.35;;;;;;;11.58;77.05;100750.53;6180456;23;20467;-68
2022/05/04 01:26:34;;;;;;;7.28;4.45;;;;;;;11.46;77.12;100740.72;6180777;23;20095;-68
2022/05/04 01:29:38;;;;;;;6.88;4.50;;;;;;;11.41;77.59;100743.56;6180890;23;20028;-68
2022/05/04 01:32:42;;;;;;;8.52;4.13;;;;;;;11.35;77.76;100739.47;6180905;23;20028;-68
2022/05/04 01:35:45;;;;;;;10.57;4.60;;;;;;;11.33;78.01;100736.13;6180795;23;20031;-68
2022/05/04 01:38:49;;;;;;;7.50;5.18;;;;;;;11.48;77.23;100744.09;6180463;22;20078;-68
2022/05/04 01:42:05;;;;;;;5.50;4.90;;;;;;;11.38;77.61;100741.94;6180765;23;20028;-68
2022/05/04 01:45:09;;;;;;;7.38;4.60;;;;;;;11.25;78.20;100753.13;6180716;23;20039;-68
2022/05/04 01:48:13;;;;;;;8.48;4.57;;;;;;;11.26;78.52;100745.19;6180785;23;20100;-68
2022/05/04 01:51:16;;;;;;;7.47;4.60;;;;;;;11.28;78.28;100748.59;6180573;23;20509;-68
2022/05/04 01:54:23;;;;;;;8.60;5.15;;;;;;;11.56;77.44;100749.78;6180683;23;20019;-68
2022/05/04 01:57:27;;;;;;;6.40;4.75;;;;;;;11.49;77.46;100751.88;6180800;23;20068;-68
2022/05/04 02:00:31;;;;;;;5.93;4.13;;;;;;;11.41;78.32;100749.63;6180729;23;20247;-68
2022/05/04 02:03:35;;;;;;;6.43;3.80;;;;;;;11.35;78.90;100751.72;6180706;23;20109;-68
2022/05/04 02:06:39;;;;;;;7.45;4.38;;;;;;;11.64;78.18;100747.56;6180034;23;20024;-68
2022/05/04 02:09:42;;;;;;;12.05;4.18;;;;;;;11.54;78.42;100749.00;6179974;23;20024;-68
2022/05/04 02:12:46;;;;;;;12.35;4.82;;;;;;;11.44;78.70;100743.41;6180668;23;20035;-68
2022/05/04 02:15:49;;;;;;;;;;;;;;;11.42;78.74;100745.25;6181096;23;20023;-68
2022/05/04 02:18:53;;;;;;;5.75;4.22;;;;;;;11.33;79.23;100746.59;6180745;23;19915;-68
2022/05/04 02:21:57;;;;;;;8.05;4.90;;;;;;;11.27;80.19;100746.91;6180427;23;20028;-68
2022/05/04 02:25:00;;;;;;;8.88;4.97;;;;;;;11.28;79.75;100743.34;6180257;23;20024;-68
2022/05/04 02:28:03;;;;;;;;;;;;;;;11.24;80.09;100746.22;6180879;23;20040;-68
2022/05/04 02:31:06;;;;;;;8.48;5.30;;;;;;;11.20;80.14;100742.03;6180503;23;19915;-68
2022/05/04 02:34:10;;;;;;;8.63;5.15;;;;;;;11.20;80.30;100744.66;6180363;23;20035;-68
2022/05/04 02:40:36;;;;;;;7.35;5.82;;;;;;;11.48;79.00;100741.47;6180461;23;20024;-68
2022/05/04 02:43:39;;;;;;;4.80;4.30;;;;;;;11.43;79.40;100740.88;6180478;23;20078;-68
2022/05/04 02:46:42;;;;;;;10.20;4.78;;;;;;;11.36;79.76;100743.81;6179672;23;20028;-68
2022/05/04 02:49:45;;;;;;;;;;;;;;;11.53;79.13;100753.41;6180459;23;20085;-68
2022/05/04 02:52:49;;;;;;;7.93;5.15;;;;;;;11.46;79.47;100753.81;6180223;23;19957;-68
2022/05/04 02:55:52;;;;;;;7.25;4.82;;;;;;;11.36;80.41;100750.81;6180366;23;20464;-68
2022/05/04 02:58:55;;;;;;;5.45;4.80;;;;;;;11.35;80.32;100755.19;6180390;23;20348;-68
2022/05/04 03:05:21;;;;;;;6.30;5.25;;;;;;;11.29;81.19;100739.78;6179775;23;20028;-68
2022/05/04 03:08:25;;;;;;;9.98;5.72;;;;;;;11.20;82.04;100747.28;6180278;23;20028;-68
2022/05/04 03:14:52;;;;;;;9.20;4.97;;;;;;;11.20;82.34;100747.28;6180273;23;20088;-68
2022/05/04 03:17:55;;;;;;;4.93;4.43;;;;;;;11.41;81.00;100738.31;6180076;23;20028;-68
2022/05/04 03:20:59;;;;;;;5.05;4.55;;;;;;;11.37;81.59;100748.13;6177960;23;20086;-68
2022/05/04 03:24:03;;;;;;;11.70;6.55;;;;;;;11.25;82.59;100738.28;6179977;23;20024;-68
2022/05/04 03:27:07;;;;;;;7.60;4.65;;;;;;;11.29;82.59;100733.72;6180560;23;20024;-68
2022/05/04 03:30:11;;;;;;;7.32;4.63;;;;;;;11.40;82.38;100732.25;6180217;23;20518;-68
2022/05/04 03:33:15;;;;;;;8.52;5.15;;;;;;;11.48;82.29;100723.13;6179834;23;20032;-68
2022/05/04 03:36:19;;;;;;;6.15;5.55;;;;;;;11.31;82.79;100734.50;6179794;23;20142;-68
2022/05/04 03:39:22;;;;;;;13.23;6.07;;;;;;;11.18;83.46;100731.66;6180015;23;20028;-68
2022/05/04 03:42:26;;;;;;;9.48;5.47;;;;;;;11.28;83.73;100738.13;6180023;23;20027;-68
2022/05/04 03:45:29;;;;;;;9.05;5.07;;;;;;;11.39;83.30;100732.31;6179937;23;20027;-68
2022/05/04 03:48:32;;;;;;;5.63;5.00;;;;;;;11.38;83.19;100739.31;6179732;23;20046;-68
2022/05/04 03:51:36;;;;;;;10.52;5.80;;;;;;;11.19;83.85;100743.81;6179930;23;20073;-68
2022/05/04 03:54:40;;;;;;;9.60;5.68;;;;;;;11.33;83.23;100751.81;6179902;23;20070;-68
2022/05/04 03:57:43;;;;;;;7.30;5.53;;;;;;;11.34;82.76;100750.88;6179606;23;20102;-68
2022/05/04 04:00:46;;;;;;;9.20;5.35;;;;;;;11.21;83.30;100749.84;6174377;23;20355;-68
2022/05/04 04:03:50;;;;;;;7.82;6.03;;;;;;;11.11;84.23;100753.84;6174378;23;20024;-69
2022/05/04 04:06:53;;;;;;;9.27;5.68;;;;;;;11.15;83.82;100764.06;6174899;23;20599;-68
2022/05/04 04:09:57;;;;;;;7.15;6.07;;;;;;;11.29;83.38;100759.91;6174074;23;20356;-69
2022/05/04 04:13:00;;;;;;;7.43;6.07;;;;;;;11.35;82.75;100764.81;6174718;23;20035;-68
2022/05/04 04:16:04;;;;;;;6.90;5.95;;;;;;;11.22;83.09;100748.91;6174138;23;20094;-68
2022/05/04 04:19:09;;;;;;;;;;;;;;;11.13;83.86;100759.84;6174520;23;20040;-68
2022/05/04 04:22:14;;;;;;;11.35;6.13;;;;;;;11.24;83.28;100754.91;6174342;23;19919;-68
2022/05/04 04:25:17;;;;;;;10.65;6.35;;;;;;;11.27;83.07;100760.00;6174113;23;20487;-68
2022/05/04 04:28:20;;;;;;;;;;;;;;;11.19;83.50;100759.53;6178848;23;20074;-68
2022/05/04 04:31:24;;;;;;;8.10;6.95;;;;;;;11.21;83.64;100755.06;6178742;23;20230;-68
2022/05/04 04:34:27;;;;;;;10.05;6.03;;;;;;;11.18;83.70;100766.53;6180123;23;20066;-68
2022/05/04 04:37:32;;;;;;;7.45;6.00;;;;;;;11.07;84.28;100781.94;6180665;22;20481;-68
2022/05/04 04:40:36;;;;;;;7.32;5.57;;;;;;;10.96;84.06;100780.78;6180803;23;20024;-68
2022/05/04 04:43:39;;;;;;;;;;;;;;;11.10;83.84;100783.53;6181693;23;20028;-68
2022/05/04 04:46:43;;;;;;;7.07;5.93;;;;;;;11.32;83.94;100785.91;6180774;23;19965;-68
2022/05/04 04:49:50;;;;;;;16.98;7.93;;;;;;;11.37;83.12;100789.16;6180998;23;20028;-68
2022/05/04 04:52:53;;;;;;;9.48;5.80;;;;;;;11.44;83.12;100789.69;6181431;23;20459;-68
2022/05/04 04:55:57;;;;;;;8.25;5.80;;;;;;;11.45;83.06;100801.84;6180984;23;20094;-68
2022/05/04 04:59:01;;;;;;;8.77;6.95;;;;;;;11.46;83.05;100799.16;6180766;23;20028;-68
2022/05/04 05:02:05;;;;;;;11.38;6.78;;;;;;;11.47;83.30;100800.00;6181099;23;20039;-68
2022/05/04 05:05:08;;;;;;;9.77;7.03;;;;;;;11.40;83.51;100808.19;6180575;23;20060;-68
2022/05/04 05:08:12;;;;;;;;;;;;;;;11.39;83.52;100816.97;6180734;23;20027;-68
2022/05/04 05:11:15;;;;;;;7.68;6.15;;;;;;;11.31;84.69;100820.88;6180991;23;19930;-68
2022/05/04 05:17:44;;;;;;;9.50;7.80;;;;;;;10.90;83.02;100819.41;6180882;23;20398;-68
2022/05/04 05:20:48;;;;;;;9.02;7.68;;;;;;;11.01;83.37;100818.00;6180894;23;20099;-68
2022/05/04 05:23:52;;;;;;;10.75;8.43;;;;;;;11.15;83.25;100820.81;6180643;23;20355;-68
2022/05/04 05:26:55;;;;;;;11.52;7.30;;;;;;;11.30;83.53;100825.28;6180880;23;20051;-68
2022/05/04 05:29:59;;;;;;;8.95;6.93;;;;;;;11.38;83.71;100822.25;6252590;22;20482;-68
2022/05/04 05:33:03;;;;;;;13.02;9.85;;;;;;;11.36;83.89;100826.75;6180772;23;20073;-68
2022/05/04 05:36:07;;;;;;;10.35;7.88;;;;;;;11.36;84.33;100822.34;6180834;23;20066;-68
2022/05/04 05:39:10;;;;;;;11.68;8.40;;;;;;;11.49;84.37;100819.97;6150591;23;20082;-68
2022/05/04 05:42:14;;;;;;;9.13;8.18;;;;;;;11.43;84.35;100815.03;6143816;23;20037;-68
2022/05/04 05:45:17;;;;;;;15.10;10.57;;;;;;;11.39;84.50;100813.47;6144553;23;20028;-69
2022/05/04 05:48:21;;;;;;;12.98;8.73;;;;;;;11.31;84.98;100813.88;6148958;23;20104;-68
2022/05/04 05:51:24;;;;;;;11.38;8.70;;;;;;;11.32;85.12;100818.19;6148160;23;20283;-68
2022/05/04 05:54:27;;;;;;;12.10;9.32;;;;;;;11.29;85.12;100813.09;6150647;23;20071;-68
2022/05/04 05:57:32;;;;;;;;;;;;;;;11.18;85.63;100804.94;6149673;23;20029;-68
2022/05/04 06:00:36;;;;;;;10.77;8.05;;;;;;;11.20;85.81;100805.72;6221372;22;19947;-68
2022/05/04 06:04:06;;;;;;;11.20;9.27;;;;;;;11.28;85.80;100807.94;6150237;23;20025;-68
2022/05/04 06:07:10;;;;;;;10.52;9.38;;;;;;;11.20;86.38;100808.34;6148695;23;20048;-68
2022/05/04 06:10:13;;;;;;;17.50;10.48;;;;;;;11.29;85.95;100797.38;6149356;23;20028;-68
2022/05/04 06:13:18;;;;;;;;;;;;;;;11.22;86.02;100796.00;6150408;23;20074;-68
2022/05/04 06:16:22;;;;;;;12.27;9.02;;;;;;;11.33;85.50;100804.19;6150828;23;19962;-68
2022/05/04 06:19:27;;;;;;;9.48;8.32;;;;;;;11.53;84.82;100799.69;6148727;23;20475;-68
2022/05/04 06:22:31;;;;;;;12.10;8.38;;;;;;;11.59;83.73;100800.22;6150368;23;20560;-68
2022/05/04 06:25:35;;;;;;;10.88;8.90;;;;;;;11.57;83.10;100807.28;6150183;23;20118;-68
2022/05/04 06:28:38;;;;;;;11.38;8.30;;;;;;;11.56;83.56;100807.38;6150656;23;20024;-68
2022/05/04 06:35:05;;;;;;;10.20;9.18;;;;;;;11.69;83.32;100799.75;6150164;23;20040;-68
2022/05/04 06:38:10;;;;;;;10.77;8.80;;;;;;;11.71;83.93;100806.59;6171509;22;20060;-68
2022/05/04 06:41:14;;;;;;;10.05;9.00;;;;;;;11.72;84.28;100804.81;6179921;23;20340;-68
2022/05/04 06:44:17;;;;;;;11.80;8.93;;;;;;;11.81;83.82;100799.09;6180314;23;20027;-68
2022/05/04 06:47:21;;;;;;;9.70;8.70;;;;;;;11.84;82.88;100812.91;6180146;23;20455;-68
2022/05/04 06:50:33;;;;;;;10.18;9.07;;;;;;;11.72;82.54;100816.13;6180309;23;20089;-68
2022/05/04 06:53:38;;;;;;;11.55;8.93;;;;;;;11.86;82.76;100813.66;6180184;23;20356;-68
2022/05/04 07:00:44;;;;;;;12.07;10.25;;;;;;;11.72;84.42;100821.38;6180190;23;20070;-71
2022/05/04 07:03:48;;;;;;;16.42;12.65;;;;;;;11.68;85.07;100825.09;6246343;22;20504;-71
2022/05/04 07:06:52;;;;;;;13.43;11.88;;;;;;;11.99;83.37;100831.34;6179909;23;20474;-71
2022/05/04 07:09:58;;;;;;;14.70;12.20;;;;;;;11.68;81.31;100819.84;6177783;23;20048;-71
2022/05/04 07:13:01;;;;;;;13.60;11.35;;;;;;;11.59;83.78;100815.94;6180025;23;20101;-71
2022/05/04 07:16:08;;;;;;;14.20;12.32;;;;;;;11.71;85.22;100814.47;6180152;23;20020;-70
2022/05/04 07:19:35;;;;;;;12.43;11.23;;;;;;;12.00;83.26;100809.47;6231695;22;20027;-70
2022/05/04 07:22:40;;;;;;;13.40;11.75;;;;;;;12.07;81.64;100805.59;6179650;23;20024;-70
2022/05/04 07:25:45;;;;;;;15.70;11.30;;;;;;;12.44;80.52;100804.41;6178285;23;20027;-72
2022/05/04 07:28:48;;;;;;;12.38;11.07;;;;;;;12.44;79.63;100798.31;6180018;23;20066;-69
2022/05/04 07:31:52;;;;;;;14.15;11.68;;;;;;;12.46;78.67;100809.56;6179349;23;20026;-68
2022/05/04 07:34:59;;;;;;;13.13;10.23;;;;;;;12.59;78.52;100807.97;6179273;23;20066;-69
2022/05/04 07:38:33;;;;;;;13.27;11.13;;;;;;;12.37;77.55;100800.44;6179713;22;20056;-68
2022/05/04 07:45:04;;;;;;;12.45;10.18;;;;;;;12.44;77.65;100795.69;6179673;23;19958;-68
2022/05/04 07:48:08;;;;;;;16.95;11.70;;;;;;;12.17;78.56;100803.31;6250892;22;20094;-68
2022/05/04 07:51:11;;;;;;;;;;;;;;;12.16;78.89;100794.63;6180276;23;20032;-68
2022/05/04 07:54:15;;;;;;;17.65;12.00;;;;;;;12.31;78.54;100791.13;6250534;22;20384;-68
2022/05/04 07:57:20;;;;;;;16.23;12.30;;;;;;;12.55;77.17;100796.78;6178734;23;20348;-68
2022/05/04 08:07:07;;;;;;;17.23;12.00;;;;;;;12.89;75.13;100799.28;6180142;23;20035;-69
2022/05/04 08:10:10;;;;;;;15.60;12.65;;;;;;;12.97;74.66;100805.78;6180171;23;20306;-68
2022/05/04 08:13:14;;;;;;;13.45;10.95;;;;;;;13.20;74.25;100814.09;6180915;23;20024;-68
2022/05/04 08:16:18;;;;;;;13.93;11.57;;;;;;;13.03;74.49;100813.28;6180594;23;20102;-69
2022/05/04 08:19:22;;;;;;;13.35;10.35;;;;;;;13.28;73.50;100813.69;6180368;23;20028;-68
2022/05/04 08:22:28;;;;;;;12.57;11.20;;;;;;;13.11;73.86;100820.72;6180243;23;20059;-68
2022/05/04 08:25:32;;;;;;;11.90;9.95;;;;;;;13.03;73.08;100823.78;6180414;23;20083;-69
2022/05/04 08:28:35;;;;;;;11.18;10.02;;;;;;;13.58;71.67;100821.53;6180762;23;20028;-69
2022/05/04 08:31:39;;;;;;;12.70;9.98;;;;;;;13.52;69.97;100825.34;6180887;23;20077;-69
2022/05/04 08:34:42;;;;;;;12.90;11.25;;;;;;;13.51;71.48;100818.41;6250484;22;20129;-69
2022/05/04 08:37:46;;;;;;;10.68;9.60;;;;;;;13.76;70.34;100817.78;6179583;22;20103;-69
2022/05/04 08:40:54;;;;;;;10.98;9.82;;;;;;;14.12;70.66;100814.66;6251978;22;20028;-69
2022/05/04 08:43:58;;;;;;;13.73;10.13;;;;;;;14.17;70.11;100820.50;6180465;23;20024;-69
2022/05/04 08:47:06;;;;;;;15.85;10.65;;;;;;;13.64;71.03;100824.63;6179843;23;20099;-68
2022/05/04 08:50:12;;;;;;;14.15;10.70;;;;;;;13.66;71.85;100825.38;6180882;23;20050;-69
2022/05/04 08:53:16;;;;;;;11.55;10.35;;;;;;;13.44;71.55;100827.59;6179815;23;20035;-69
2022/05/04 08:56:19;;;;;;;11.50;10.30;;;;;;;13.62;70.96;100831.75;6180544;23;20024;-69
2022/05/04 08:59:23;;;;;;;11.57;9.75;;;;;;;13.85;70.65;100826.91;6180719;23;20348;-69
2022/05/04 09:02:27;;;;;;;13.27;10.02;;;;;;;13.63;71.71;100825.56;6180083;23;20024;-69
2022/05/04 09:05:31;;;;;;;15.40;10.48;;;;;;;13.96;70.69;100820.03;6180694;23;20416;-69
2022/05/04 09:08:53;;;;;;;10.70;9.60;;;;;;;14.00;69.76;100815.41;6180249;23;20047;-69
2022/05/04 09:12:02;;;;;;;11.00;9.70;;;;;;;14.08;69.71;100813.16;6180707;23;20100;-68
2022/05/04 09:15:36;;;;;;;14.20;10.13;;;;;;;14.06;70.30;100815.03;6180605;23;20458;-69
2022/05/04 09:18:40;;;;;;;13.57;10.15;;;;;;;14.14;72.93;100807.53;6180183;23;20024;-68
2022/05/04 09:21:47;;;;;;;11.63;10.27;;;;;;;14.07;71.83;100811.50;6178941;23;20121;-68
2022/05/04 09:24:50;;;;;;;11.15;9.95;;;;;;;14.18;70.80;100809.03;6180299;23;20074;-69
2022/05/04 09:27:56;;;;;;;11.23;10.02;;;;;;;14.18;70.21;100803.75;6180858;23;20142;-69
2022/05/04 09:31:06;;;;;;;13.57;10.02;;;;;;;14.30;70.69;100802.16;6180333;23;20065;-68
2022/05/04 09:34:10;;;;;;;12.65;9.93;;;;;;;14.31;71.42;100800.34;6180787;23;20027;-69
2022/05/04 09:47:26;;;;;;;12.73;9.48;;;;;;;14.64;70.66;100782.44;6180242;23;20078;-69
2022/05/04 09:50:38;;;;;;;14.60;9.27;;;;;;;14.75;68.86;100794.06;6173038;23;20028;-69
2022/05/04 09:53:42;;;;;;;14.80;9.85;;;;;;;14.84;69.50;100780.28;6174250;23;20032;-69
2022/05/04 09:56:47;;;;;;;11.77;9.68;;;;;;;14.81;68.53;100785.75;6175412;23;20491;-69
2022/05/04 09:59:51;;;;;;;10.82;7.85;;;;;;;14.93;67.47;100784.94;6175010;23;20077;-69
2022/05/04 10:02:56;;;;;;;9.95;8.30;;;;;;;15.01;64.21;100782.63;6175762;23;20024;-69
2022/05/04 10:06:01;;;;;;;11.60;7.63;;;;;;;15.10;65.57;100782.03;6176228;23;20055;-69
2022/05/04 10:09:05;;;;;;;10.35;7.63;;;;;;;15.27;64.57;100783.50;6173982;23;20110;-69
2022/05/04 10:12:10;;;;;;;10.32;8.38;;;;;;;15.10;63.34;100781.19;6174317;23;20073;-69
2022/05/04 10:15:18;;;;;;;12.70;8.00;;;;;;;15.29;64.89;100778.16;6175386;23;20023;-69
2022/05/04 10:18:26;;;;;;;9.68;8.20;;;;;;;15.35;62.61;100780.38;6175690;23;20585;-69
2022/05/04 10:21:30;;;;;;;11.57;7.50;;;;;;;15.38;62.03;100779.31;6175112;23;20083;-69
2022/05/04 10:24:35;;;;;;;10.55;8.43;;;;;;;15.43;62.77;100772.78;6244704;22;20067;-69
2022/05/04 10:27:40;;;;;;;12.30;8.30;;;;;;;15.49;63.18;100767.09;6174342;23;20394;-69
2022/05/04 10:30:55;;;;;;;12.35;8.65;;;;;;;15.51;62.44;100764.38;6172791;23;20028;-69
2022/05/04 10:34:01;;;;;;;12.80;8.20;;;;;;;15.63;62.24;100757.38;6173791;23;20032;-69
2022/05/04 10:37:05;;;;;;;9.70;7.82;;;;;;;15.80;63.17;100759.72;6174268;22;20047;-69
2022/05/04 10:40:10;;;;;;;11.20;8.23;;;;;;;15.90;62.35;100757.28;6174310;23;20083;-70
2022/05/04 10:43:19;;;;;;;9.57;8.00;;;;;;;15.90;63.21;100754.66;6245442;22;20044;-69
2022/05/04 10:46:24;;;;;;;11.55;8.10;;;;;;;15.96;61.74;100755.03;6175439;23;20044;-69
2022/05/04 10:49:38;;;;;;;10.20;7.72;;;;;;;16.03;61.28;100745.75;6175821;23;20349;-69
2022/05/04 10:52:50;;;;;;;13.02;7.95;;;;;;;16.15;60.94;100748.47;6175214;23;20368;-69
2022/05/04 10:56:01;;;;;;;13.05;8.25;;;;;;;16.35;60.33;100753.13;6174672;23;20102;-71
2022/05/04 10:59:16;;;;;;;9.38;7.90;;;;;;;16.41;56.62;100747.41;6175075;23;20051;-72
2022/05/04 11:06:10;;;;;;;9.35;7.60;;;;;;;16.69;57.93;100733.00;6174405;23;20028;-71
2022/05/04 11:10:00;;;;;;;12.52;8.30;;;;;;;16.85;55.90;100734.53;6174698;23;20036;-71
2022/05/04 11:13:07;;;;;;;10.68;7.75;;;;;;;17.14;57.29;100719.97;6175029;23;20028;-71
2022/05/04 11:16:11;;;;;;;10.57;7.43;;;;;;;17.25;57.08;100713.84;6173971;23;20487;-71
2022/05/04 11:19:15;;;;;;;11.98;8.02;;;;;;;17.35;55.36;100709.50;6174450;23;20024;-71
2022/05/04 11:22:20;;;;;;;9.85;7.65;;;;;;;17.33;51.90;100708.81;6174077;23;20113;-70
2022/05/04 11:25:26;;;;;;;9.52;7.60;;;;;;;17.30;53.14;100701.13;6172947;23;20101;-71
2022/05/04 11:28:30;;;;;;;12.48;7.55;;;;;;;17.39;55.33;100708.34;6175106;23;20024;-71
2022/05/04 11:31:37;;;;;;;10.63;7.18;;;;;;;17.52;55.20;100700.28;6174239;23;20473;-71
2022/05/04 11:34:42;;;;;;;12.70;8.10;;;;;;;17.69;54.42;100695.47;6174584;23;20023;-71
2022/05/04 11:37:45;;;;;;;13.38;8.40;;;;;;;17.83;54.36;100692.56;6173220;22;20348;-70
2022/05/04 11:40:51;;;;;;;9.73;7.55;;;;;;;17.95;53.52;100693.41;6173804;23;20056;-70
2022/05/04 11:43:58;;;;;;;11.70;7.35;;;;;;;18.03;52.22;100688.34;6175709;23;20040;-70
2022/05/04 11:47:03;;;;;;;11.27;7.78;;;;;;;18.11;52.21;100680.63;6175589;23;20040;-70
2022/05/04 11:50:56;;;;;;;11.32;8.55;;;;;;;18.17;52.47;100668.69;6175537;23;20368;-70
2022/05/04 11:54:30;;;;;;;8.73;7.43;;;;;;;18.12;49.72;100672.56;6180443;23;20112;-70
2022/05/04 11:57:46;;;;;;;8.98;7.40;;;;;;;18.18;51.90;100671.19;6253154;22;20064;-74
2022/05/04 12:00:50;;;;;;;11.32;7.88;;;;;;;18.23;48.94;100669.03;6180438;23;20023;-70
2022/05/04 12:03:56;;;;;;;15.15;8.50;;;;;;;18.18;48.39;100660.63;6181024;23;20450;-70
2022/05/04 12:07:16;;;;;;;9.48;7.13;;;;;;;18.33;48.54;100658.53;6180646;23;20028;-70
2022/05/04 12:10:22;;;;;;;11.30;8.90;;;;;;;18.14;47.47;100651.25;6180994;23;20084;-70
2022/05/04 12:13:42;;;;;;;11.80;7.72;;;;;;;18.33;47.61;100646.13;6180430;23;20024;-70
2022/05/04 12:17:46;;;;;;;15.30;8.13;;;;;;;18.51;47.20;100648.22;6180279;23;20357;-68
2022/05/04 12:22:11;;;;;;;9.52;7.32;;;;;;;18.80;46.62;100640.50;6177825;23;20043;-68
2022/05/04 12:25:32;;;;;;;10.23;7.47;;;;;;;19.11;45.58;100632.56;6178442;23;20468;-68
2022/05/04 12:36:24;;;;;;;14.00;7.68;;;;;;;19.73;44.31;100627.06;6179578;23;20020;-68
2022/05/04 12:40:15;;;;;;;8.70;7.35;;;;;;;20.10;42.16;100621.13;6174270;23;20471;-68
2022/05/04 12:43:24;;;;;;;10.35;6.90;;;;;;;20.40;43.59;100612.16;6150146;23;20463;-69
2022/05/04 12:46:30;;;;;;;14.43;7.63;;;;;;;20.75;41.66;100609.88;6150821;23;20452;-69
2022/05/04 12:49:37;;;;;;;8.85;7.60;;;;;;;20.39;41.82;100609.66;6151097;23;20505;-68
2022/05/04 12:52:42;;;;;;;10.95;7.80;;;;;;;20.76;38.90;100608.91;6150082;23;20435;-69
2022/05/04 12:59:09;;;;;;;12.15;8.27;;;;;;;20.37;40.99;100606.28;6150490;23;20027;-68
2022/05/04 13:02:12;;;;;;;8.77;6.93;;;;;;;21.06;41.24;100608.66;6239365;22;20100;-68
2022/05/04 13:05:19;;;;;;;11.55;9.60;;;;;;;20.82;38.87;100600.34;6150679;23;20075;-68
2022/05/04 13:08:23;;;;;;;12.15;8.65;;;;;;;21.14;38.29;100595.47;6151006;23;20029;-68
2022/05/04 13:11:26;;;;;;;10.70;8.15;;;;;;;21.85;37.50;100583.31;6150996;23;20024;-68
2022/05/04 13:14:30;;;;;;;11.70;6.82;;;;;;;22.15;37.72;100573.28;6221919;22;20100;-68
2022/05/04 13:17:34;;;;;;;13.30;7.55;;;;;;;21.91;38.56;100580.03;6151040;23;20028;-68
2022/05/04 13:20:38;;;;;;;10.05;7.45;;;;;;;21.93;36.57;100571.91;6150764;23;20025;-68
2022/05/04 13:23:44;;;;;;;8.75;7.20;;;;;;;21.65;37.94;100576.47;6151111;23;20071;-68
2022/05/04 13:26:49;;;;;;;7.93;6.20;;;;;;;22.35;36.44;100553.47;6148850;23;20075;-68
2022/05/04 13:29:53;;;;;;;6.88;6.18;;;;;;;22.54;35.69;100567.59;6149055;23;20063;-68
2022/05/04 13:32:57;;;;;;;9.40;6.57;;;;;;;21.28;37.76;100572.88;6150359;23;20345;-68
2022/05/04 13:36:01;;;;;;;9.70;6.70;;;;;;;20.64;37.75;100571.88;6149719;23;20071;-68
2022/05/04 13:39:04;;;;;;;12.25;6.10;;;;;;;21.05;37.83;100572.41;6150358;23;20574;-68
2022/05/04 13:42:09;;;;;;;8.00;6.82;;;;;;;22.09;36.93;100566.72;6150076;23;20028;-68
2022/05/04 13:45:13;;;;;;;13.60;6.93;;;;;;;21.65;37.33;100566.66;6150014;23;20055;-68
2022/05/04 13:48:17;;;;;;;8.85;6.28;;;;;;;22.75;34.86;100565.41;6149668;23;20396;-69
2022/05/04 13:54:42;;;;;;;7.90;5.90;;;;;;;25.34;30.80;100561.38;6150872;23;20086;-68
2022/05/04 13:57:46;;;;;;;10.45;7.22;;;;;;;23.03;34.91;100562.53;6149150;23;20067;-68
2022/05/04 14:00:51;;;;;;;13.38;7.30;;;;;;;20.70;38.52;100574.94;6150853;23;20072;-68
2022/05/04 14:03:55;;;;;;;9.20;8.23;;;;;;;19.52;41.12;100568.78;6150095;23;20056;-68
2022/05/04 14:06:58;;;;;;;12.95;8.93;;;;;;;19.97;40.37;100570.97;6150822;23;20028;-68
2022/05/04 14:10:01;;;;;;;12.23;8.27;;;;;;;19.50;42.09;100569.91;6150683;23;20361;-68
2022/05/04 14:13:05;;;;;;;11.18;8.57;;;;;;;21.98;38.56;100562.47;6150375;23;20072;-68
2022/05/04 14:16:10;;;;;;;10.27;8.15;;;;;;;25.36;31.19;100559.34;6150554;23;20399;-68
2022/05/04 14:19:13;;;;;;;15.52;9.48;;;;;;;25.17;30.16;100555.25;6148764;23;20510;-68
2022/05/04 14:22:17;;;;;;;9.23;7.55;;;;;;;25.84;29.52;100554.72;6149935;23;20060;-68
2022/05/04 14:25:21;;;;;;;16.45;8.25;;;;;;;25.63;28.99;100549.16;6149983;23;20079;-68
2022/05/04 14:28:30;;;;;;;12.18;6.65;;;;;;;24.72;29.94;100547.88;6148407;23;20056;-68
2022/05/04 14:31:37;;;;;;;12.25;7.38;;;;;;;21.81;34.82;100558.00;6150206;23;20098;-68
2022/05/04 14:34:41;;;;;;;9.48;6.63;;;;;;;23.84;32.07;100549.44;6150449;23;20027;-70
2022/05/04 14:37:46;;;;;;;12.05;8.30;;;;;;;21.20;37.00;100561.31;6165545;22;20486;-70
2022/05/04 14:40:49;;;;;;;8.18;6.32;;;;;;;22.75;34.83;100557.41;6179547;23;20024;-70
2022/05/04 14:43:54;;;;;;;9.20;6.15;;;;;;;22.03;37.17;100544.22;6179997;23;20105;-70
2022/05/04 14:46:59;;;;;;;11.18;7.18;;;;;;;22.98;35.20;100552.38;6179661;23;20072;-70
2022/05/04 14:50:02;;;;;;;9.82;6.45;;;;;;;21.04;37.59;100557.47;6180539;23;20148;-70
2022/05/04 14:53:06;;;;;;;9.98;7.43;;;;;;;20.09;38.85;100558.38;6251722;22;20028;-70
2022/05/04 14:56:10;;;;;;;9.23;7.55;;;;;;;19.92;40.32;100553.78;6178532;23;20024;-69
2022/05/04 14:59:13;;;;;;;11.32;6.85;;;;;;;19.81;40.98;100556.56;6170754;23;20032;-69
2022/05/04 15:02:17;;;;;;;11.05;6.95;;;;;;;19.53;40.75;100559.03;6178453;23;20078;-69
2022/05/04 15:05:20;;;;;;;10.63;7.65;;;;;;;19.36;41.05;100557.03;6250652;22;20074;-69
2022/05/04 15:08:27;;;;;;;10.23;7.65;;;;;;;19.67;41.77;100550.69;6178052;23;20024;-69
2022/05/04 15:11:30;;;;;;;9.70;7.03;;;;;;;20.87;39.52;100548.44;6179481;23;20032;-69
2022/05/04 15:14:34;;;;;;;9.65;6.93;;;;;;;22.26;36.83;100549.06;6179545;23;20032;-69
2022/05/04 15:17:38;;;;;;;11.75;7.40;;;;;;;24.24;32.61;100553.09;6178303;23;20059;-69
2022/05/04 15:20:41;;;;;;;12.93;8.10;;;;;;;23.41;33.09;100540.66;6178798;23;20169;-69